Time,TemperatureF,DewpointF,PressureIn,WindDirection,WindDirectionDegrees,WindSpeedMPH,WindSpeedGustMPH,Humidity,HourlyPrecipIn,Conditions,Clouds,dailyrainin,SoftwareType,DateUTC
2013-04-29 00:00:00,72.3,24.3,29.85,NW,315,4.7,5.0,16,0.00,,,0.00,tws,2013-04-29 07:00:00,
2013-04-29 00:10:00,71.9,23.8,29.86,NW,315,5.0,5.8,16,0.00,,,0.00,tws,2013-04-29 07:10:00,
2013-04-29 00:20:00,71.7,23.8,29.86,NW,315,5.0,5.4,16,0.00,,,0.00,tws,2013-04-29 07:20:00,
2013-04-29 00:30:00,71.5,24.0,29.85,WNW,292,5.2,5.9,16,0.00,,,0.00,tws,2013-04-29 07:30:00,
2013-04-29 00:40:00,71.4,23.8,29.86,NW,315,4.3,5.3,16,0.00,,,0.00,tws,2013-04-29 07:40:00,
2013-04-29 00:50:00,71.3,23.6,29.85,NW,315,4.4,4.8,16,0.00,,,0.00,tws,2013-04-29 07:50:00,
2013-04-29 01:00:00,71.0,24.1,29.87,NE,45,3.3,7.3,16,0.00,,,0.00,tws,2013-04-29 08:00:00,
2013-04-29 01:10:00,70.0,24.0,29.87,SSW,202,2.1,3.6,17,0.00,,,0.00,tws,2013-04-29 08:10:00,
2013-04-29 01:20:00,68.8,23.3,29.87,SW,225,1.5,3.0,17,0.00,,,0.00,tws,2013-04-29 08:20:00,
2013-04-29 01:30:00,68.0,24.6,29.87,ESE,112,1.2,2.6,19,0.00,,,0.00,tws,2013-04-29 08:30:00,
2013-04-29 01:40:00,67.4,26.5,29.87,North,0,1.3,1.6,21,0.00,,,0.00,tws,2013-04-29 08:40:00,
2013-04-29 01:50:00,66.9,25.9,29.87,NNW,337,2.4,4.4,20,0.00,,,0.00,tws,2013-04-29 08:50:00,
2013-04-29 02:00:00,66.4,25.3,29.86,NW,315,4.4,5.5,20,0.00,,,0.00,tws,2013-04-29 09:00:00,
2013-04-29 02:10:00,66.1,24.3,29.86,NW,315,4.6,5.7,20,0.00,,,0.00,tws,2013-04-29 09:10:00,
2013-04-29 02:20:00,65.7,23.9,29.86,NW,315,6.0,7.7,20,0.00,,,0.00,tws,2013-04-29 09:20:00,
2013-04-29 02:30:00,65.6,24.1,29.86,NW,315,5.3,6.7,20,0.00,,,0.00,tws,2013-04-29 09:30:00,
2013-04-29 02:40:00,65.6,23.6,29.85,NNW,337,5.1,5.9,19,0.00,,,0.00,tws,2013-04-29 09:40:00,
2013-04-29 02:50:00,65.7,23.3,29.84,WNW,292,4.3,5.6,19,0.00,,,0.00,tws,2013-04-29 09:50:00,
2013-04-29 03:00:00,65.8,23.2,29.85,NW,315,3.8,4.5,19,0.00,,,0.00,tws,2013-04-29 10:00:00,
2013-04-29 03:10:00,65.7,22.6,29.84,NW,315,4.6,5.3,19,0.00,,,0.00,tws,2013-04-29 10:10:00,
2013-04-29 03:20:00,65.6,22.7,29.84,WNW,292,4.0,4.6,19,0.00,,,0.00,tws,2013-04-29 10:20:00,
2013-04-29 03:30:00,65.6,23.6,29.85,NNW,337,1.0,3.5,20,0.00,,,0.00,tws,2013-04-29 10:30:00,
2013-04-29 03:40:00,65.1,25.0,29.85,NW,315,1.8,4.9,21,0.00,,,0.00,tws,2013-04-29 10:40:00,
2013-04-29 03:50:00,64.4,24.9,29.84,NNW,337,5.7,6.5,21,0.00,,,0.00,tws,2013-04-29 10:50:00,
2013-04-29 04:00:00,63.9,24.5,29.85,NW,315,5.6,6.2,22,0.00,,,0.00,tws,2013-04-29 11:00:00,
2013-04-29 04:10:00,63.6,23.6,29.85,NW,315,6.1,7.0,21,0.00,,,0.00,tws,2013-04-29 11:10:00,
2013-04-29 04:20:00,63.6,22.8,29.84,NW,315,5.3,6.8,20,0.00,,,0.00,tws,2013-04-29 11:20:00,
2013-04-29 04:30:00,64.1,22.4,29.85,NW,315,5.5,5.8,19,0.00,,,0.00,tws,2013-04-29 11:30:00,
2013-04-29 04:40:00,64.9,22.8,29.85,NW,315,4.5,5.7,19,0.00,,,0.00,tws,2013-04-29 11:40:00,
2013-04-29 04:50:00,65.2,22.9,29.84,East,90,1.5,2.6,19,0.00,,,0.00,tws,2013-04-29 11:50:00,
2013-04-29 05:00:00,64.7,23.4,29.85,North,0,0.4,1.6,20,0.00,,,0.00,tws,2013-04-29 12:00:00,
2013-04-29 05:10:00,63.9,24.1,29.84,North,0,0.0,0.0,21,0.00,,,0.00,tws,2013-04-29 12:10:00,
2013-04-29 05:20:00,62.7,24.2,29.85,NW,315,0.0,0.0,22,0.00,,,0.00,tws,2013-04-29 12:20:00,
2013-04-29 05:30:00,61.8,24.6,29.85,SW,225,0.7,1.6,23,0.00,,,0.00,tws,2013-04-29 12:30:00,
2013-04-29 05:40:00,61.2,24.6,29.86,SW,225,0.0,0.0,24,0.00,,,0.00,tws,2013-04-29 12:40:00,
2013-04-29 05:50:00,60.8,25.2,29.87,NNE,22,0.7,2.4,25,0.00,,,0.00,tws,2013-04-29 12:50:00,
2013-04-29 06:00:00,60.5,26.3,29.87,North,0,1.4,2.4,26,0.00,,,0.00,tws,2013-04-29 13:00:00,
2013-04-29 06:10:00,60.1,25.9,29.87,North,0,1.1,2.6,26,0.00,,,0.00,tws,2013-04-29 13:10:00,
2013-04-29 06:20:00,59.7,24.9,29.87,NW,315,1.1,2.2,26,0.00,,,0.00,tws,2013-04-29 13:20:00,
2013-04-29 06:30:00,59.5,26.1,29.87,NW,315,1.0,2.6,27,0.00,,,0.00,tws,2013-04-29 13:30:00,
2013-04-29 06:40:00,59.3,27.9,29.87,NW,315,0.5,1.8,29,0.00,,,0.00,tws,2013-04-29 13:40:00,
2013-04-29 06:50:00,59.4,30.0,29.87,NW,315,0.0,0.0,32,0.00,,,0.00,tws,2013-04-29 13:50:00,
2013-04-29 07:00:00,59.5,31.4,29.88,NW,315,0.1,1.0,34,0.00,,,0.00,tws,2013-04-29 14:00:00,
2013-04-29 07:10:00,60.0,32.5,29.88,NW,315,0.6,2.3,35,0.00,,,0.00,tws,2013-04-29 14:10:00,
2013-04-29 07:20:00,60.7,33.9,29.87,SW,225,0.0,0.0,36,0.00,,,0.00,tws,2013-04-29 14:20:00,
2013-04-29 07:30:00,61.7,33.6,29.88,SE,135,0.5,1.9,34,0.00,,,0.00,tws,2013-04-29 14:30:00,
2013-04-29 07:40:00,63.1,32.5,29.88,ENE,67,1.5,2.4,31,0.00,,,0.00,tws,2013-04-29 14:40:00,
2013-04-29 07:50:00,64.8,31.4,29.89,East,90,1.4,2.1,28,0.00,,,0.00,tws,2013-04-29 14:50:00,
2013-04-29 08:00:00,66.3,31.8,29.88,NW,315,0.7,1.3,27,0.00,,,0.00,tws,2013-04-29 15:00:00,
2013-04-29 08:10:00,67.7,32.2,29.88,NE,45,0.4,0.8,26,0.00,,,0.00,tws,2013-04-29 15:10:00,
2013-04-29 08:20:00,69.0,32.0,29.89,North,0,1.4,2.4,24,0.00,,,0.00,tws,2013-04-29 15:20:00,
2013-04-29 08:30:00,70.6,31.7,29.88,NE,45,2.4,4.0,23,0.00,,,0.00,tws,2013-04-29 15:30:00,
2013-04-29 08:40:00,72.5,32.2,29.88,ESE,112,2.9,3.6,22,0.00,,,0.00,tws,2013-04-29 15:40:00,
2013-04-29 08:50:00,74.2,34.0,29.89,South,180,2.3,3.9,22,0.00,,,0.00,tws,2013-04-29 15:50:00,
2013-04-29 09:00:00,75.6,33.7,29.88,ESE,112,2.8,4.0,21,0.00,,,0.00,tws,2013-04-29 16:00:00,
2013-04-29 09:10:00,77.1,34.8,29.88,ESE,112,2.9,4.3,21,0.00,,,0.00,tws,2013-04-29 16:10:00,
2013-04-29 09:20:00,79.1,34.3,29.89,East,90,3.6,4.4,19,0.00,,,0.00,tws,2013-04-29 16:20:00,
2013-04-29 09:30:00,81.6,34.4,29.89,East,90,4.2,5.2,17,0.00,,,0.00,tws,2013-04-29 16:30:00,
2013-04-29 09:40:00,83.7,34.1,29.89,East,90,3.8,4.9,16,0.00,,,0.00,tws,2013-04-29 16:40:00,
2013-04-29 09:50:00,85.4,35.5,29.88,SSE,157,4.0,5.1,16,0.00,,,0.00,tws,2013-04-29 16:50:00,
2013-04-29 10:00:00,87.0,35.5,29.89,SE,135,3.4,4.6,15,0.00,,,0.00,tws,2013-04-29 17:00:00,
2013-04-29 10:10:00,88.1,35.2,29.89,ESE,112,2.8,4.5,15,0.00,,,0.00,tws,2013-04-29 17:10:00,
2013-04-29 10:20:00,88.9,36.2,29.89,ESE,112,3.6,5.0,15,0.00,,,0.00,tws,2013-04-29 17:20:00,
2013-04-29 10:30:00,90.0,37.3,29.89,SE,135,2.0,3.6,15,0.00,,,0.00,tws,2013-04-29 17:30:00,
2013-04-29 10:40:00,90.9,35.8,29.87,SE,135,3.8,5.6,13,0.00,,,0.00,tws,2013-04-29 17:40:00,
2013-04-29 10:50:00,91.1,35.1,29.86,SE,135,3.2,5.4,13,0.00,,,0.00,tws,2013-04-29 17:50:00,
2013-04-29 11:00:00,91.4,35.6,29.85,South,180,3.0,4.6,13,0.00,,,0.00,tws,2013-04-29 18:00:00,
2013-04-29 11:10:00,91.2,33.7,29.86,South,180,3.8,5.2,12,0.00,,,0.00,tws,2013-04-29 18:10:00,
2013-04-29 11:20:00,90.4,32.7,29.86,North,0,2.6,5.7,12,0.00,,,0.00,tws,2013-04-29 18:20:00,
2013-04-29 11:30:00,89.8,33.6,29.85,SE,135,4.0,8.1,13,0.00,,,0.00,tws,2013-04-29 18:30:00,
2013-04-29 11:40:00,89.6,33.1,29.85,SSE,157,4.4,7.7,13,0.00,,,0.00,tws,2013-04-29 18:40:00,
2013-04-29 11:50:00,89.7,33.4,29.85,WSW,247,3.7,5.3,13,0.00,,,0.00,tws,2013-04-29 18:50:00,
2013-04-29 12:00:00,89.9,32.9,29.85,SE,135,5.2,9.0,12,0.00,,,0.00,tws,2013-04-29 19:00:00,
2013-04-29 12:10:00,90.2,33.9,29.84,SW,225,5.4,10.0,13,0.00,,,0.00,tws,2013-04-29 19:10:00,
2013-04-29 12:20:00,90.7,33.1,29.84,South,180,4.1,9.6,12,0.00,,,0.00,tws,2013-04-29 19:20:00,
2013-04-29 12:30:00,91.0,33.2,29.83,South,180,5.0,6.8,12,0.00,,,0.00,tws,2013-04-29 19:30:00,
2013-04-29 12:40:00,91.3,32.3,29.83,West,270,4.8,9.2,12,0.00,,,0.00,tws,2013-04-29 19:40:00,
2013-04-29 12:50:00,91.4,33.4,29.83,South,180,5.8,9.3,12,0.00,,,0.00,tws,2013-04-29 19:50:00,
2013-04-29 13:00:00,92.0,34.1,29.82,ESE,112,3.6,6.4,12,0.00,,,0.00,tws,2013-04-29 20:00:00,
2013-04-29 13:10:00,92.6,33.6,29.82,East,90,7.0,11.6,12,0.00,,,0.00,tws,2013-04-29 20:10:00,
2013-04-29 13:20:00,92.8,33.3,29.82,SW,225,5.6,8.9,11,0.00,,,0.00,tws,2013-04-29 20:20:00,
2013-04-29 13:30:00,93.1,34.4,29.82,SE,135,5.5,7.4,12,0.00,,,0.00,tws,2013-04-29 20:30:00,
2013-04-29 13:40:00,93.5,33.8,29.81,SE,135,7.0,8.7,11,-99.99,,,-99.99,tws,2013-04-29 20:40:00,
2013-04-29 13:50:00,93.6,32.9,29.80,SE,135,6.2,8.0,11,-99.99,,,-99.99,tws,2013-04-29 20:50:00,
2013-04-29 14:00:00,93.7,33.8,29.80,SE,135,4.8,7.8,11,-99.99,,,-99.99,tws,2013-04-29 21:00:00,
2013-04-29 14:10:00,93.8,33.3,29.79,SE,135,6.3,10.7,11,-99.99,,,-99.99,tws,2013-04-29 21:10:00,
2013-04-29 14:20:00,93.9,33.0,29.80,SSE,157,6.3,8.0,11,-99.99,,,-99.99,tws,2013-04-29 21:20:00,
2013-04-29 14:30:00,94.1,32.5,29.79,South,180,6.9,10.1,11,-99.99,,,-99.99,tws,2013-04-29 21:30:00,
2013-04-29 14:40:00,94.5,33.8,29.79,ESE,112,4.6,6.6,11,-99.99,,,-99.99,tws,2013-04-29 21:40:00,
2013-04-29 14:50:00,94.8,34.2,29.78,SE,135,5.2,8.9,11,-99.99,,,-99.99,tws,2013-04-29 21:50:00,
2013-04-29 15:00:00,95.0,33.5,29.76,South,180,8.3,11.1,11,-99.99,,,-99.99,tws,2013-04-29 22:00:00,
2013-04-29 15:10:00,94.8,32.2,29.75,SSE,157,8.4,11.6,10,-99.99,,,-99.99,tws,2013-04-29 22:10:00,
2013-04-29 15:20:00,94.6,32.0,29.75,NW,315,7.2,11.8,10,-99.99,,,-99.99,tws,2013-04-29 22:20:00,
2013-04-29 15:30:00,94.5,32.6,29.74,SSW,202,8.0,12.5,11,-99.99,,,-99.99,tws,2013-04-29 22:30:00,
2013-04-29 15:40:00,94.6,33.0,29.74,South,180,7.0,9.9,11,-99.99,,,-99.99,tws,2013-04-29 22:40:00,
2013-04-29 15:50:00,95.0,35.1,29.74,East,90,4.4,6.6,11,-99.99,,,-99.99,tws,2013-04-29 22:50:00,
2013-04-29 16:00:00,95.4,33.4,29.74,NNE,22,6.2,11.8,11,-99.99,,,-99.99,tws,2013-04-29 23:00:00,
2013-04-29 16:10:00,95.1,34.4,29.73,East,90,2.6,5.2,11,-99.99,,,-99.99,tws,2013-04-29 23:10:00,
2013-04-29 16:20:00,95.4,35.8,29.73,East,90,3.8,5.6,12,-99.99,,,-99.99,tws,2013-04-29 23:20:00,
2013-04-29 16:30:00,95.2,33.9,29.72,SW,225,5.6,7.2,11,-99.99,,,-99.99,tws,2013-04-29 23:30:00,
2013-04-29 16:40:00,94.9,31.7,29.72,South,180,8.2,11.8,10,-99.99,,,-99.99,tws,2013-04-29 23:40:00,
2013-04-29 16:50:00,94.2,31.9,29.71,ESE,112,2.6,5.1,10,-99.99,,,-99.99,tws,2013-04-29 23:50:00,
2013-04-29 17:00:00,93.8,32.6,29.71,West,270,4.8,8.9,11,-99.99,,,-99.99,tws,2013-04-30 00:00:00,
2013-04-29 17:10:00,93.5,31.4,29.70,SW,225,8.5,10.7,10,-99.99,,,-99.99,tws,2013-04-30 00:10:00,
2013-04-29 17:20:00,92.9,30.7,29.71,SW,225,8.1,10.4,10,-99.99,,,-99.99,tws,2013-04-30 00:20:00,
2013-04-29 17:30:00,92.4,30.4,29.70,South,180,4.1,6.3,10,-99.99,,,-99.99,tws,2013-04-30 00:30:00,
2013-04-29 17:40:00,92.0,30.8,29.71,West,270,5.8,9.3,11,-99.99,,,-99.99,tws,2013-04-30 00:40:00,
2013-04-29 17:50:00,91.5,30.2,29.70,SW,225,6.6,10.3,10,-99.99,,,-99.99,tws,2013-04-30 00:50:00,
2013-04-29 18:00:00,91.1,30.0,29.71,SW,225,6.3,8.5,11,-99.99,,,-99.99,tws,2013-04-30 01:00:00,
2013-04-29 18:10:00,90.8,30.4,29.72,SW,225,7.9,9.2,11,-99.99,,,-99.99,tws,2013-04-30 01:10:00,
2013-04-29 18:20:00,90.3,29.4,29.71,SW,225,7.1,8.2,11,-99.99,,,-99.99,tws,2013-04-30 01:20:00,
2013-04-29 18:30:00,89.9,29.7,29.70,East,90,5.3,7.3,11,-99.99,,,-99.99,tws,2013-04-30 01:30:00,
2013-04-29 18:40:00,89.4,31.0,29.70,SW,225,3.5,5.2,12,-99.99,,,-99.99,tws,2013-04-30 01:40:00,
2013-04-29 18:50:00,88.8,30.0,29.71,South,180,4.0,5.3,11,-99.99,,,-99.99,tws,2013-04-30 01:50:00,
2013-04-29 19:00:00,88.2,30.0,29.72,SW,225,3.5,4.2,12,-99.99,,,-99.99,tws,2013-04-30 02:00:00,
2013-04-29 19:10:00,87.5,30.2,29.72,South,180,2.6,3.5,12,-99.99,,,-99.99,tws,2013-04-30 02:10:00,
2013-04-29 19:20:00,86.6,33.1,29.72,West,270,1.8,2.3,14,-99.99,,,-99.99,tws,2013-04-30 02:20:00,
2013-04-29 19:30:00,85.3,33.9,29.72,West,270,2.9,4.2,15,-99.99,,,-99.99,tws,2013-04-30 02:30:00,
2013-04-29 19:40:00,84.2,31.0,29.72,North,360,3.7,4.4,14,-99.99,,,-99.99,tws,2013-04-30 02:40:00,
2013-04-29 19:50:00,83.7,30.4,29.74,WSW,247,3.1,3.8,14,-99.99,,,-99.99,tws,2013-04-30 02:50:00,
2013-04-29 20:00:00,83.2,31.7,29.73,NW,315,2.7,3.3,15,-99.99,,,-99.99,tws,2013-04-30 03:00:00,
2013-04-29 20:10:00,82.5,31.7,29.74,WNW,292,2.7,3.3,15,-99.99,,,-99.99,tws,2013-04-30 03:10:00,
2013-04-29 20:20:00,81.8,31.7,29.74,NW,315,2.5,2.6,16,-99.99,,,-99.99,tws,2013-04-30 03:20:00,
2013-04-29 20:30:00,80.9,31.9,29.73,NW,315,2.6,3.1,16,-99.99,,,-99.99,tws,2013-04-30 03:30:00,
2013-04-29 20:40:00,80.0,31.6,29.74,NW,315,3.0,4.3,16,-99.99,,,-99.99,tws,2013-04-30 03:40:00,
2013-04-29 20:50:00,79.3,31.0,29.75,NW,315,3.0,4.0,16,-99.99,,,-99.99,tws,2013-04-30 03:50:00,
2013-04-29 21:00:00,78.5,29.8,29.75,NW,315,4.5,5.6,16,-99.99,,,-99.99,tws,2013-04-30 04:00:00,
2013-04-29 21:10:00,77.9,29.3,29.74,NW,315,3.9,4.2,16,-99.99,,,-99.99,tws,2013-04-30 04:10:00,
2013-04-29 21:20:00,77.5,29.1,29.75,West,270,4.3,5.5,16,-99.99,,,-99.99,tws,2013-04-30 04:20:00,
2013-04-29 21:30:00,77.2,29.0,29.76,WNW,292,3.6,4.7,16,-99.99,,,-99.99,tws,2013-04-30 04:30:00,
2013-04-29 21:40:00,76.9,29.0,29.75,West,270,4.3,5.3,16,-99.99,,,-99.99,tws,2013-04-30 04:40:00,
2013-04-29 21:50:00,76.7,29.0,29.75,NW,315,2.8,3.9,16,-99.99,,,-99.99,tws,2013-04-30 04:50:00,
2013-04-29 22:00:00,76.2,28.3,29.76,South,180,2.7,5.7,16,-99.99,,,-99.99,tws,2013-04-30 05:00:00,
2013-04-29 22:10:00,75.7,27.9,29.76,SSW,202,2.8,4.9,16,-99.99,,,-99.99,tws,2013-04-30 05:10:00,
2013-04-29 22:20:00,75.8,28.1,29.76,SSW,202,3.2,3.8,16,-99.99,,,-99.99,tws,2013-04-30 05:20:00,
2013-04-29 22:30:00,76.2,28.8,29.78,SW,225,3.9,4.8,17,-99.99,,,-99.99,tws,2013-04-30 05:30:00,
2013-04-29 22:40:00,76.4,29.2,29.77,South,180,2.8,3.6,17,-99.99,,,-99.99,tws,2013-04-30 05:40:00,
2013-04-29 22:50:00,76.2,30.7,29.77,SW,225,2.0,3.1,18,-99.99,,,-99.99,tws,2013-04-30 05:50:00,
2013-04-29 23:00:00,75.5,31.2,29.77,SSW,202,2.5,2.9,19,-99.99,,,-99.99,tws,2013-04-30 06:00:00,
2013-04-29 23:10:00,74.6,31.3,29.79,West,270,2.1,3.1,20,-99.99,,,-99.99,tws,2013-04-30 06:10:00,
2013-04-29 23:20:00,74.0,32.2,29.79,WNW,292,1.4,1.8,21,-99.99,,,-99.99,tws,2013-04-30 06:20:00,
2013-04-29 23:30:00,73.2,31.8,29.79,West,270,1.7,2.7,21,-99.99,,,-99.99,tws,2013-04-30 06:30:00,
2013-04-29 23:40:00,72.4,32.0,29.79,NW,315,0.9,2.0,22,-99.99,,,-99.99,tws,2013-04-30 06:40:00,
2013-04-29 23:50:00,71.7,31.8,29.79,NW,315,2.0,3.3,22,-99.99,,,-99.99,tws,2013-04-30 06:50:00,